Time;durP1;ratioP1;P1;durP2;ratioP2;P2;SDS_P1;SDS_P2;PMS_P1;PMS_P2;Temp;Humidity;BMP_temperature;BMP_pressure;BME280_temperature;BME280_humidity;BME280_pressure;Samples;Min_cycle;Max_cycle;Signal;HPM_P1;HPM_P2
2022/04/01 00:01:58;;;;;;;21.20;14.32;;;3.40;99.90;;;;;;5097372;28;20028;-64
2022/04/01 00:04:23;;;;;;;19.35;14.15;;;3.50;99.90;;;;;;5097568;28;20028;-64
2022/04/01 00:06:49;;;;;;;19.73;14.75;;;3.50;99.90;;;;;;5097023;28;20028;-64
2022/04/01 00:09:15;;;;;;;20.52;14.02;;;3.50;99.90;;;;;;5097333;28;20493;-64
2022/04/01 00:11:40;;;;;;;22.00;16.23;;;3.50;99.90;;;;;;5095930;28;20024;-65
2022/04/01 00:14:06;;;;;;;22.15;14.80;;;3.50;99.90;;;;;;5097317;28;20471;-65
2022/04/01 00:16:32;;;;;;;20.10;14.50;;;3.50;99.90;;;;;;5112735;28;20059;-64
2022/04/01 00:18:57;;;;;;;19.98;14.57;;;3.40;99.90;;;;;;5097176;28;20032;-65
2022/04/01 00:21:24;;;;;;;21.35;13.90;;;3.50;99.90;;;;;;5097248;28;20032;-65
2022/04/01 00:23:49;;;;;;;23.83;14.88;;;3.50;99.90;;;;;;5097290;28;20020;-65
2022/04/01 00:26:15;;;;;;;21.08;14.45;;;3.40;99.90;;;;;;5095641;28;20027;-65
2022/04/01 00:28:41;;;;;;;22.08;14.43;;;3.50;99.90;;;;;;5097105;28;20081;-65
2022/04/01 00:31:06;;;;;;;22.98;14.50;;;3.40;99.90;;;;;;5096110;28;20035;-65
2022/04/01 00:33:32;;;;;;;19.40;14.45;;;3.40;99.90;;;;;;5097052;28;20034;-65
2022/04/01 00:35:57;;;;;;;22.23;14.88;;;3.40;99.90;;;;;;5096935;28;20024;-64
2022/04/01 00:38:24;;;;;;;21.63;15.70;;;3.30;99.90;;;;;;5095390;28;20026;-65
2022/04/01 00:40:51;;;;;;;23.25;14.50;;;3.30;99.90;;;;;;5094204;28;20032;-65
2022/04/01 00:43:24;;;;;;;23.23;16.10;;;3.40;99.90;;;;;;5096593;28;20046;-65
2022/04/01 00:45:50;;;;;;;22.83;15.40;;;3.30;99.90;;;;;;5096728;28;20028;-65
2022/04/01 00:48:17;;;;;;;20.63;14.77;;;3.30;99.90;;;;;;5095504;28;20169;-65
2022/04/01 00:50:43;;;;;;;21.77;15.18;;;3.40;99.90;;;;;;5112163;28;20386;-65
2022/04/01 00:53:09;;;;;;;22.38;15.38;;;3.40;99.90;;;;;;5096462;28;20020;-65
2022/04/01 00:55:34;;;;;;;21.52;15.25;;;3.30;99.90;;;;;;5096047;28;20456;-65
2022/04/01 00:58:01;;;;;;;22.77;16.45;;;3.50;99.90;;;;;;5095391;28;20028;-65
2022/04/01 01:00:28;;;;;;;23.00;14.55;;;3.90;99.90;;;;;;5096144;28;20472;-65
2022/04/01 01:02:54;;;;;;;21.33;15.43;;;3.30;99.90;;;;;;5096246;28;20031;-65
2022/04/01 01:05:20;;;;;;;21.58;15.25;;;3.30;99.90;;;;;;5094937;28;20035;-64
2022/04/01 01:07:48;;;;;;;24.92;16.92;;;3.30;99.90;;;;;;5096308;28;20452;-65
2022/04/01 01:10:16;;;;;;;24.35;15.85;;;3.40;99.90;;;;;;5096088;28;20043;-65
2022/04/01 01:12:43;;;;;;;20.03;14.60;;;3.40;99.90;;;;;;5096315;28;20061;-65
2022/04/01 01:15:14;;;;;;;21.55;14.40;;;3.30;99.90;;;;;;5094952;28;20069;-65
2022/04/01 01:17:40;;;;;;;20.70;14.00;;;3.30;99.90;;;;;;5095903;28;20105;-65
2022/04/01 01:20:14;;;;;;;23.30;13.77;;;3.50;99.90;;;;;;5094538;28;20383;-65
2022/04/01 01:22:41;;;;;;;18.70;13.32;;;3.30;99.90;;;;;;5095959;28;20027;-65
2022/04/01 01:25:08;;;;;;;19.10;13.38;;;3.30;99.90;;;;;;5094528;28;20028;-66
2022/04/01 01:27:34;;;;;;;19.60;13.40;;;3.30;99.90;;;;;;5095230;28;20031;-65
2022/04/01 01:30:02;;;;;;;20.17;14.20;;;3.30;99.90;;;;;;5095457;28;20103;-65
2022/04/01 01:32:29;;;;;;;21.25;14.32;;;3.30;99.90;;;;;;5111325;28;20031;-65
2022/04/01 01:34:55;;;;;;;21.92;15.27;;;3.30;99.90;;;;;;5094353;28;20024;-66
2022/04/01 01:37:21;;;;;;;22.60;15.65;;;3.40;99.90;;;;;;5094242;28;20460;-65
2022/04/01 01:39:47;;;;;;;21.92;15.27;;;3.60;99.90;;;;;;5093863;28;20058;-65
2022/04/01 01:42:12;;;;;;;24.15;16.98;;;3.40;99.90;;;;;;5094406;28;20038;-65
2022/04/01 01:44:38;;;;;;;22.90;16.27;;;3.30;99.90;;;;;;5095710;28;20024;-65
2022/04/01 01:47:05;;;;;;;23.40;16.08;;;3.30;99.90;;;;;;5094586;28;20506;-65
2022/04/01 01:49:31;;;;;;;23.40;16.92;;;3.30;99.90;;;;;;5095062;28;20040;-65
2022/04/01 01:54:45;;;;;;;27.40;18.08;;;3.30;99.90;;;;;;5095327;28;20387;-65
2022/04/01 01:57:16;;;;;;;25.83;17.33;;;3.30;99.90;;;;;;5094197;28;20031;-64
2022/04/01 01:59:43;;;;;;;25.35;16.65;;;3.40;99.90;;;;;;5093919;28;20036;-64
2022/04/01 02:02:10;;;;;;;25.42;17.10;;;3.50;99.90;;;;;;5093838;28;20023;-65
2022/04/01 02:04:38;;;;;;;24.88;17.17;;;3.40;99.90;;;;;;5095056;28;20046;-64
2022/04/01 02:07:05;;;;;;;25.63;16.85;;;3.40;99.90;;;;;;5095037;28;20042;-64
2022/04/01 02:09:31;;;;;;;23.83;16.38;;;3.40;99.90;;;;;;5093732;28;20387;-64
2022/04/01 02:11:57;;;;;;;22.98;15.52;;;3.40;99.90;;;;;;5094969;28;20026;-63
2022/04/01 02:14:23;;;;;;;21.27;15.32;;;3.30;99.90;;;;;;5093590;28;20032;-64
2022/04/01 02:16:48;;;;;;;24.95;15.85;;;3.30;99.90;;;;;;5094407;28;20125;-64
2022/04/01 02:19:21;;;;;;;21.77;16.08;;;3.40;99.90;;;;;;5093462;28;20527;-64
2022/04/01 02:21:51;;;;;;;22.17;15.18;;;3.30;99.90;;;;;;5094821;28;20102;-64
2022/04/01 02:24:17;;;;;;;23.60;15.82;;;3.40;99.90;;;;;;5093405;28;20046;-64
2022/04/01 02:26:49;;;;;;;24.60;16.80;;;3.50;99.90;;;;;;5094861;28;20056;-64
2022/04/01 02:29:19;;;;;;;23.17;16.27;;;3.40;99.90;;;;;;5094666;28;20027;-64
2022/04/01 02:31:45;;;;;;;20.80;14.68;;;3.50;99.90;;;;;;5093412;28;20542;-64
2022/04/01 02:34:10;;;;;;;22.33;15.65;;;3.50;99.90;;;;;;5093317;28;20028;-64
2022/04/01 02:36:38;;;;;;;21.88;15.57;;;3.50;99.90;;;;;;5094679;28;20383;-64
2022/04/01 02:39:05;;;;;;;20.60;15.25;;;3.50;99.90;;;;;;5094351;28;20060;-64
2022/04/01 02:41:31;;;;;;;24.20;16.38;;;3.50;99.90;;;;;;5094423;28;20024;-64
2022/04/01 02:44:08;;;;;;;20.38;14.68;;;3.50;99.90;;;;;;5094384;28;20056;-64
2022/04/01 02:46:35;;;;;;;22.02;16.10;;;3.80;99.90;;;;;;5093258;28;20486;-65
2022/04/01 02:49:04;;;;;;;21.95;14.80;;;3.50;99.90;;;;;;5093969;28;20076;-64
2022/04/01 02:51:30;;;;;;;;;;;3.60;99.90;;;;;;5094664;28;20016;-64
2022/04/01 02:53:56;;;;;;;19.85;14.88;;;3.50;99.90;;;;;;5094204;28;20317;-64
2022/04/01 02:56:21;;;;;;;20.35;14.77;;;3.50;99.90;;;;;;5092874;28;20024;-64
2022/04/01 02:58:48;;;;;;;21.60;15.77;;;3.50;99.90;;;;;;5109696;28;20456;-64
2022/04/01 03:01:14;;;;;;;21.33;14.65;;;3.40;99.90;;;;;;5093805;28;20376;-65
2022/04/01 03:03:41;;;;;;;21.45;14.50;;;3.40;99.90;;;;;;5093049;28;20486;-65
2022/04/01 03:06:07;;;;;;;22.42;15.18;;;3.40;99.90;;;;;;5109792;28;20111;-66
2022/04/01 03:08:32;;;;;;;22.45;14.63;;;3.40;99.90;;;;;;5094171;28;20441;-64
2022/04/01 03:10:59;;;;;;;21.45;14.25;;;3.50;99.90;;;;;;5092697;28;20024;-64
2022/04/01 03:13:25;;;;;;;21.45;13.45;;;3.40;99.90;;;;;;5092673;28;20464;-65
2022/04/01 03:15:51;;;;;;;20.75;14.02;;;3.40;99.90;;;;;;5109398;28;20048;-64
2022/04/01 03:18:16;;;;;;;22.92;15.63;;;3.40;99.90;;;;;;5093585;28;20035;-65
2022/04/01 03:20:44;;;;;;;22.77;15.85;;;3.50;99.90;;;;;;5093629;28;20044;-64
2022/04/01 03:23:09;;;;;;;21.58;15.25;;;3.40;99.90;;;;;;5092829;28;20111;-64
2022/04/01 03:25:37;;;;;;;21.65;15.25;;;3.50;99.90;;;;;;5093532;28;20384;-64
2022/04/01 03:28:02;;;;;;;22.10;14.80;;;3.40;99.90;;;;;;5092889;28;20028;-64
2022/04/01 03:30:29;;;;;;;18.80;14.20;;;3.30;99.90;;;;;;5092758;28;20035;-64
2022/04/01 03:32:55;;;;;;;19.88;14.40;;;3.40;99.90;;;;;;5093833;28;20035;-64
2022/04/01 03:35:21;;;;;;;23.13;15.13;;;3.40;99.90;;;;;;5092475;28;20036;-64
2022/04/01 03:37:49;;;;;;;22.40;15.50;;;3.30;99.90;;;;;;5092912;28;20497;-64
2022/04/01 03:40:16;;;;;;;21.48;15.30;;;3.40;99.90;;;;;;5093894;28;20034;-64
2022/04/01 03:42:44;;;;;;;20.65;14.05;;;3.40;99.90;;;;;;5093860;28;20031;-64
2022/04/01 03:45:12;;;;;;;20.10;14.00;;;3.40;99.90;;;;;;5093594;28;20074;-64
2022/04/01 03:47:40;;;;;;;19.75;14.43;;;3.50;99.90;;;;;;5092391;28;20036;-64
2022/04/01 03:50:09;;;;;;;20.25;13.90;;;3.30;99.90;;;;;;5093673;28;20111;-66
2022/04/01 03:52:36;;;;;;;21.52;14.68;;;3.30;99.90;;;;;;5092326;28;20032;-65
2022/04/01 03:55:07;;;;;;;21.52;15.00;;;3.30;99.90;;;;;;5093623;28;20089;-64
2022/04/01 03:57:39;;;;;;;20.00;14.25;;;3.30;99.90;;;;;;5093620;28;20103;-65
2022/04/01 04:00:07;;;;;;;20.00;14.57;;;3.50;99.90;;;;;;5093486;28;20035;-64
2022/04/01 04:02:34;;;;;;;19.58;13.88;;;3.30;99.90;;;;;;5093714;28;20030;-64
2022/04/01 04:05:01;;;;;;;16.23;12.98;;;3.30;99.90;;;;;;5093196;28;20020;-64
2022/04/01 04:07:27;;;;;;;19.20;13.30;;;3.20;99.90;;;;;;5093456;28;20030;-69
2022/04/01 04:09:54;;;;;;;19.35;14.10;;;3.30;99.90;;;;;;5093443;28;20062;-64
2022/04/01 04:12:22;;;;;;;19.90;13.18;;;3.30;99.90;;;;;;5093491;28;20095;-64
2022/04/01 04:14:52;;;;;;;22.25;15.52;;;3.30;99.90;;;;;;5109855;28;20024;-64
2022/04/01 04:17:30;;;;;;;20.42;13.48;;;3.40;99.90;;;;;;5095663;28;20392;-64
2022/04/01 04:20:09;;;;;;;18.88;13.00;;;3.40;99.90;;;;;;5096712;28;20032;-65
2022/04/01 04:23:02;;;;;;;21.55;13.73;;;3.40;99.90;;;;;;5095881;28;20032;-65
2022/04/01 04:25:36;;;;;;;16.65;12.52;;;3.40;99.90;;;;;;5096292;28;20062;-65
2022/04/01 04:28:09;;;;;;;19.67;13.65;;;3.30;99.90;;;;;;5096960;28;20055;-64
2022/04/01 04:30:38;;;;;;;18.15;13.05;;;3.30;99.90;;;;;;5097016;28;20035;-64
2022/04/01 04:33:09;;;;;;;17.40;12.98;;;3.30;99.90;;;;;;5096793;28;20027;-64
2022/04/01 04:35:40;;;;;;;21.92;13.63;;;3.30;99.90;;;;;;5095477;28;20074;-64
2022/04/01 04:38:07;;;;;;;19.15;13.75;;;3.30;99.90;;;;;;5096093;28;20088;-65
2022/04/01 04:40:34;;;;;;;19.00;12.55;;;3.30;99.90;;;;;;5096779;28;20123;-65
2022/04/01 04:43:01;;;;;;;18.55;12.82;;;3.30;99.90;;;;;;5096864;28;20024;-65
2022/04/01 04:45:27;;;;;;;20.20;13.35;;;3.30;99.90;;;;;;5096591;28;20485;-64
2022/04/01 04:47:54;;;;;;;20.10;13.30;;;3.30;99.90;;;;;;5095265;28;20032;-64
2022/04/01 04:50:21;;;;;;;18.15;13.05;;;3.40;99.90;;;;;;5095272;28;20032;-64
2022/04/01 04:52:49;;;;;;;15.40;10.63;;;3.40;99.90;;;;;;5095157;28;20028;-64
2022/04/01 04:55:20;;;;;;;18.48;12.27;;;3.50;99.90;;;;;;5096500;28;20053;-63
2022/04/01 04:57:47;;;;;;;21.00;12.30;;;3.40;99.90;;;;;;5095711;28;20093;-65
2022/04/01 05:00:19;;;;;;;15.77;11.70;;;3.40;99.90;;;;;;5094951;28;20040;-65
2022/04/01 05:03:32;;;;;;;14.52;10.80;;;3.40;99.90;;;;;;5095358;28;20357;-63
2022/04/01 05:06:01;;;;;;;13.93;9.77;;;3.40;99.90;;;;;;5071600;28;20028;-64
2022/04/01 05:08:52;;;;;;;15.40;11.23;;;3.50;99.90;;;;;;5096166;28;20035;-65
2022/04/01 05:11:32;;;;;;;14.52;10.60;;;3.50;99.90;;;;;;5096096;28;20044;-65
2022/04/01 05:14:23;;;;;;;15.07;11.40;;;3.50;99.90;;;;;;5096039;28;20089;-64
2022/04/01 05:16:54;;;;;;;14.18;10.32;;;3.50;99.90;;;;;;5096245;28;20048;-63
2022/04/01 05:19:28;;;;;;;15.77;10.60;;;3.50;99.90;;;;;;5094510;28;20476;-65
2022/04/01 05:22:03;;;;;;;16.35;10.90;;;3.40;99.90;;;;;;5096034;28;20402;-64
2022/04/01 05:24:42;;;;;;;21.23;10.68;;;3.50;99.90;;;;;;5095912;28;20067;-64
2022/04/01 05:27:21;;;;;;;14.73;10.00;;;3.50;99.90;;;;;;5095585;28;20020;-63
2022/04/01 05:29:53;;;;;;;15.18;9.98;;;3.50;99.90;;;;;;5096066;28;20070;-64
2022/04/01 05:32:20;;;;;;;16.33;10.05;;;3.40;99.90;;;;;;5095861;28;20028;-64
2022/04/01 05:34:49;;;;;;;14.73;9.68;;;3.40;99.90;;;;;;5095351;28;20020;-64
2022/04/01 05:40:37;;;;;;;13.43;9.27;;;5.70;99.90;;;;;;5095162;28;20183;-64
2022/04/01 05:43:04;;;;;;;14.90;9.48;;;3.30;99.90;;;;;;5095451;28;20028;-64
2022/04/01 05:45:31;;;;;;;13.93;8.20;;;3.30;99.90;;;;;;5095657;28;20042;-64
2022/04/01 05:47:58;;;;;;;14.95;8.38;;;3.40;99.90;;;;;;5095087;28;20063;-64
2022/04/01 05:50:25;;;;;;;14.25;9.43;;;3.30;99.90;;;;;;5095506;28;20040;-65
2022/04/01 05:52:52;;;;;;;16.98;8.55;;;3.40;99.90;;;;;;5093992;28;20383;-65
2022/04/01 05:55:22;;;;;;;14.82;8.75;;;3.50;99.90;;;;;;5093687;28;20028;-64
2022/04/01 05:57:48;;;;;;;13.90;9.50;;;3.30;99.90;;;;;;5093856;28;20392;-64
2022/04/01 06:00:14;;;;;;;11.10;7.55;;;3.30;99.90;;;;;;5094775;28;20086;-65
2022/04/01 06:03:01;;;;;;;11.55;7.88;;;3.40;99.90;;;;;;5094814;28;20047;-65
2022/04/01 06:05:47;;;;;;;9.23;7.05;;;3.40;99.90;;;;;;5095318;28;20103;-66
2022/04/01 06:08:12;;;;;;;10.30;7.53;;;3.40;99.90;;;;;;5093890;28;20058;-67
2022/04/01 06:10:53;;;;;;;12.80;8.13;;;3.30;99.90;;;;;;5093756;28;20024;-65
2022/04/01 06:13:39;;;;;;;12.50;7.32;;;3.40;99.90;;;;;;5094025;28;20024;-64
2022/04/01 06:16:33;;;;;;;13.63;7.93;;;3.40;99.90;;;;;;5073072;28;20108;-65
2022/04/01 06:19:06;;;;;;;11.52;7.20;;;3.50;99.90;;;;;;5093453;28;20460;-64
2022/04/01 06:21:38;;;;;;;9.20;6.70;;;3.50;99.90;;;;;;5094795;28;20372;-65
2022/04/01 06:24:10;;;;;;;10.40;6.82;;;3.50;99.90;;;;;;5093560;28;20455;-65
2022/04/01 06:26:43;;;;;;;11.23;7.60;;;3.50;99.90;;;;;;5094692;28;20024;-65
2022/04/01 06:29:15;;;;;;;9.10;6.95;;;3.50;99.90;;;;;;5093805;28;20028;-64
2022/04/01 06:31:48;;;;;;;17.80;6.90;;;3.60;99.90;;;;;;5094583;28;20035;-64
2022/04/01 06:34:25;;;;;;;8.63;6.93;;;3.50;99.90;;;;;;5094303;28;20453;-64
2022/04/01 06:36:53;;;;;;;10.52;7.28;;;3.60;99.90;;;;;;5092978;28;20024;-64
2022/04/01 06:40:01;;;;;;;9.57;6.95;;;3.60;99.90;;;;;;5093924;28;20036;-65
2022/04/01 06:45:49;;;;;;;12.40;6.88;;;3.60;99.90;;;;;;5094124;28;20241;-64
2022/04/01 06:48:14;;;;;;;8.65;6.45;;;3.70;99.90;;;;;;5094247;28;20383;-64
2022/04/01 06:54:02;;;;;;;8.32;5.70;;;3.70;99.90;;;;;;5094209;28;20065;-64
2022/04/01 06:59:51;;;;;;;8.23;5.90;;;4.40;99.90;;;;;;5094013;28;20088;-64
2022/04/01 07:02:17;;;;;;;7.78;6.40;;;3.60;99.90;;;;;;5093886;28;20028;-64
2022/04/01 07:04:42;;;;;;;7.50;5.85;;;3.60;99.90;;;;;;5092777;28;20031;-64
2022/04/01 07:07:09;;;;;;;8.15;5.63;;;3.60;99.90;;;;;;5092941;28;20028;-64
2022/04/01 07:09:37;;;;;;;8.05;5.00;;;3.60;99.90;;;;;;5094290;28;20024;-64
2022/04/01 07:12:03;;;;;;;8.93;5.30;;;3.60;99.90;;;;;;5092705;28;20035;-64
2022/04/01 07:14:31;;;;;;;8.07;5.60;;;3.60;99.90;;;;;;5093979;28;20063;-65
2022/04/01 07:16:57;;;;;;;9.02;6.03;;;3.60;99.90;;;;;;5092221;28;20549;-64
2022/04/01 07:19:23;;;;;;;7.80;5.97;;;3.70;99.90;;;;;;5093814;28;20028;-64
2022/04/01 07:21:49;;;;;;;7.78;6.05;;;3.70;99.90;;;;;;5093513;28;20028;-65
2022/04/01 07:24:15;;;;;;;8.93;5.93;;;3.80;99.90;;;;;;5092517;28;20031;-64
2022/04/01 07:26:41;;;;;;;12.32;5.63;;;3.80;99.90;;;;;;5093797;28;20029;-63
2022/04/01 07:29:06;;;;;;;12.13;6.13;;;3.90;99.90;;;;;;5093513;28;20020;-64
2022/04/01 07:34:28;;;;;;;10.00;6.03;;;3.90;99.90;;;;;;5093818;28;20158;-64
2022/04/01 07:36:53;;;;;;;7.70;5.47;;;3.90;99.90;;;;;;5092885;28;20119;-63
2022/04/01 07:39:19;;;;;;;8.52;5.63;;;3.90;99.90;;;;;;5093639;28;20111;-63
2022/04/01 07:41:45;;;;;;;6.45;5.35;;;3.90;99.90;;;;;;5093424;28;20024;-63
2022/04/01 07:47:34;;;;;;;7.65;5.70;;;5.40;99.90;;;;;;5093673;28;20069;-64
2022/04/01 07:50:01;;;;;;;7.70;5.65;;;4.10;99.90;;;;;;5095902;28;20028;-64
2022/04/01 07:52:27;;;;;;;9.43;6.03;;;4.00;99.90;;;;;;5097728;28;20069;-65
2022/04/01 07:54:53;;;;;;;7.85;6.20;;;4.00;99.90;;;;;;5097441;28;20036;-64
2022/04/01 07:57:19;;;;;;;6.38;5.75;;;4.00;99.90;;;;;;5097710;28;20077;-64
2022/04/01 07:59:46;;;;;;;9.02;6.13;;;4.10;99.90;;;;;;5097768;28;20035;-63
2022/04/01 08:02:13;;;;;;;7.40;6.22;;;4.10;99.90;;;;;;5097437;28;20076;-64
2022/04/01 08:07:23;;;;;;;6.80;4.95;;;4.30;99.90;;;;;;5097555;28;20068;-64
2022/04/01 08:09:52;;;;;;;6.32;5.10;;;4.10;99.90;;;;;;5095739;28;20392;-63
2022/04/01 08:12:17;;;;;;;;;;;4.20;99.90;;;;;;5097741;28;20020;-64
2022/04/01 08:14:43;;;;;;;7.40;5.03;;;4.10;99.90;;;;;;5097200;28;20344;-63
2022/04/01 08:17:12;;;;;;;9.38;5.05;;;4.00;99.90;;;;;;5097379;28;20392;-63
2022/04/01 08:19:42;;;;;;;10.05;4.97;;;4.20;99.90;;;;;;5096723;28;20055;-63
2022/04/01 08:22:08;;;;;;;5.28;4.75;;;4.00;99.90;;;;;;5097328;28;20020;-63
2022/04/01 08:24:34;;;;;;;6.28;5.03;;;4.10;99.90;;;;;;5095734;28;20115;-63
2022/04/01 08:27:00;;;;;;;6.53;5.43;;;4.10;99.90;;;;;;5095646;28;20063;-64
2022/04/01 08:29:30;;;;;;;8.48;5.30;;;4.10;99.90;;;;;;5096617;28;20032;-64
2022/04/01 08:31:57;;;;;;;8.15;5.60;;;4.10;99.90;;;;;;5096835;28;20032;-64
2022/04/01 08:34:23;;;;;;;5.47;4.80;;;4.20;99.90;;;;;;5097022;28;20027;-63
2022/04/01 08:36:49;;;;;;;5.72;4.85;;;4.20;99.90;;;;;;5095609;28;20457;-63
2022/04/01 08:39:15;;;;;;;5.38;4.88;;;4.20;99.90;;;;;;5095356;28;20034;-64
2022/04/01 08:41:41;;;;;;;4.97;4.32;;;4.20;99.90;;;;;;5095428;28;20115;-64
2022/04/01 08:44:07;;;;;;;6.00;4.75;;;4.20;99.90;;;;;;5096595;28;20453;-64
2022/04/01 08:46:33;;;;;;;8.15;5.80;;;4.20;99.90;;;;;;5095261;28;20116;-64
2022/04/01 08:49:00;;;;;;;5.72;4.97;;;4.20;99.90;;;;;;5096278;28;20032;-64
2022/04/01 08:51:28;;;;;;;6.30;4.85;;;4.30;99.90;;;;;;5096743;28;20070;-64
2022/04/01 08:53:54;;;;;;;7.00;4.97;;;4.30;99.90;;;;;;5096573;28;20016;-64
2022/04/01 08:56:20;;;;;;;8.52;5.25;;;4.40;99.90;;;;;;5095370;28;20270;-63
2022/04/01 08:58:46;;;;;;;4.72;4.22;;;4.40;99.90;;;;;;5096381;28;20034;-63
2022/04/01 09:01:13;;;;;;;5.15;4.15;;;4.40;99.90;;;;;;5094310;28;20032;-64
2022/04/01 09:03:40;;;;;;;5.90;4.30;;;4.40;99.90;;;;;;5094975;28;20464;-65
2022/04/01 09:06:06;;;;;;;7.25;4.25;;;4.40;99.90;;;;;;5095029;28;20476;-64
2022/04/01 09:08:37;;;;;;;7.53;4.50;;;4.40;99.90;;;;;;5096191;28;20081;-63
2022/04/01 09:11:10;;;;;;;9.68;4.95;;;4.40;99.90;;;;;;5096178;28;20035;-63
2022/04/01 09:13:50;;;;;;;8.00;4.90;;;4.50;99.90;;;;;;5094855;28;20028;-64
2022/04/01 09:16:25;;;;;;;9.32;4.82;;;4.50;99.90;;;;;;5094766;28;20051;-64
2022/04/01 09:18:56;;;;;;;5.80;4.65;;;4.60;99.90;;;;;;5095986;28;20046;-63
2022/04/01 09:21:31;;;;;;;5.50;4.38;;;4.70;99.90;;;;;;5096344;28;20036;-64
2022/04/01 09:23:59;;;;;;;6.18;4.47;;;4.70;99.90;;;;;;5095725;28;20529;-64
2022/04/01 09:26:33;;;;;;;8.45;4.25;;;4.70;99.90;;;;;;5094509;28;20027;-64
2022/04/01 09:28:59;;;;;;;4.68;3.80;;;4.80;99.90;;;;;;5096063;28;20085;-64
2022/04/01 09:31:31;;;;;;;5.38;4.30;;;4.70;99.90;;;;;;5094406;28;20031;-64
2022/04/01 09:33:56;;;;;;;6.72;4.90;;;4.70;99.90;;;;;;5096054;28;20027;-63
2022/04/01 09:36:37;;;;;;;4.72;4.32;;;4.80;99.90;;;;;;5094337;28;20032;-64
2022/04/01 09:39:09;;;;;;;6.05;4.30;;;4.80;99.90;;;;;;5093973;28;20081;-63
2022/04/01 09:41:47;;;;;;;5.82;4.10;;;4.80;99.90;;;;;;5095139;28;20025;-63
2022/04/01 09:44:16;;;;;;;4.55;3.80;;;4.80;99.90;;;;;;5095564;28;20031;-64
2022/04/01 09:46:50;;;;;;;4.90;4.40;;;4.90;99.90;;;;;;5095423;28;20024;-64
2022/04/01 09:49:42;;;;;;;8.05;4.38;;;4.90;99.90;;;;;;5094619;28;20043;-63
2022/04/01 09:52:18;;;;;;;5.22;3.58;;;5.00;99.90;;;;;;5094226;28;20028;-63
2022/04/01 09:54:49;;;;;;;5.00;4.50;;;5.10;99.90;;;;;;5095231;28;20024;-64
2022/04/01 09:57:16;;;;;;;5.35;4.40;;;5.00;99.90;;;;;;5094074;28;20452;-64
2022/04/01 09:59:43;;;;;;;6.20;4.28;;;4.90;99.90;;;;;;5094090;28;20479;-64
2022/04/01 10:02:09;;;;;;;8.55;4.45;;;4.90;99.90;;;;;;5094193;28;20032;-63
2022/04/01 10:04:35;;;;;;;5.43;3.78;;;5.00;99.90;;;;;;5093792;28;20024;-64
2022/04/01 10:07:02;;;;;;;4.65;4.13;;;5.00;99.90;;;;;;5095292;28;20099;-64
2022/04/01 10:09:29;;;;;;;5.25;3.80;;;5.00;99.90;;;;;;5094982;28;20043;-65
2022/04/01 10:11:59;;;;;;;5.05;3.88;;;4.90;99.90;;;;;;5094052;28;20349;-63
2022/04/01 10:14:29;;;;;;;5.85;3.88;;;4.90;99.90;;;;;;5093007;28;20024;-63
2022/04/01 10:19:49;;;;;;;4.40;4.00;;;5.00;99.90;;;;;;5094902;28;20047;-64
2022/04/01 10:22:16;;;;;;;5.47;4.25;;;5.00;99.90;;;;;;5094922;28;20016;-64
2022/04/01 10:25:15;;;;;;;3.90;3.53;;;5.00;99.90;;;;;;5094663;28;20043;-66
2022/04/01 10:27:54;;;;;;;10.02;6.60;;;5.10;99.90;;;;;;5094597;28;20455;-66
2022/04/01 10:30:20;;;;;;;;;;;5.10;99.90;;;;;;5094980;28;20055;-65
2022/04/01 10:32:49;;;;;;;5.15;3.97;;;5.10;99.90;;;;;;5094553;28;19939;-63
2022/04/01 10:35:25;;;;;;;4.78;4.25;;;5.20;99.90;;;;;;5094533;28;20422;-64
2022/04/01 10:37:55;;;;;;;4.47;3.75;;;5.20;99.90;;;;;;5094467;28;20057;-63
2022/04/01 10:40:22;;;;;;;5.18;4.45;;;5.30;99.90;;;;;;5093056;28;20040;-64
2022/04/01 10:42:48;;;;;;;4.85;4.07;;;5.30;99.90;;;;;;5094400;28;20028;-64
2022/04/01 10:45:17;;;;;;;6.55;4.18;;;5.40;99.90;;;;;;5094324;28;20437;-64
2022/04/01 10:53:48;;;;;;;3.75;3.40;;;5.30;99.90;;;;;;5094018;28;20031;-64
2022/04/01 10:59:04;;;;;;;4.18;3.78;;;5.40;99.90;;;;;;5094277;28;20073;-63
2022/04/01 11:01:51;;;;;;;4.32;3.92;;;5.30;99.90;;;;;;5092819;28;20032;-64
2022/04/01 11:04:17;;;;;;;5.40;3.70;;;5.30;99.90;;;;;;5092821;28;20028;-64
2022/04/01 11:07:06;;;;;;;4.80;4.00;;;5.30;99.90;;;;;;5094085;28;20028;-64
2022/04/01 11:09:35;;;;;;;10.00;4.60;;;5.20;99.90;;;;;;5094346;28;20047;-65
2022/04/01 11:12:17;;;;;;;5.55;4.70;;;5.30;99.90;;;;;;5094009;28;20028;-63
2022/04/01 11:14:55;;;;;;;5.22;4.28;;;5.30;99.90;;;;;;5092730;28;20150;-64
2022/04/01 11:17:34;;;;;;;4.90;4.40;;;5.40;99.90;;;;;;5093969;28;20361;-63
2022/04/01 11:20:00;;;;;;;5.50;4.47;;;5.40;99.90;;;;;;5094177;28;20032;-64
2022/04/01 11:23:00;;;;;;;6.78;3.92;;;5.50;99.90;;;;;;5093133;28;20380;-63
2022/04/01 11:25:31;;;;;;;3.85;3.50;;;5.50;99.90;;;;;;5077483;28;20032;-63
2022/04/01 11:27:56;;;;;;;4.30;3.90;;;5.60;99.90;;;;;;5099776;28;20558;-64
2022/04/01 11:30:27;;;;;;;5.95;3.88;;;5.80;99.90;;;;;;5100607;28;20032;-64
2022/04/01 11:32:56;;;;;;;4.78;4.22;;;5.80;99.90;;;;;;5100325;28;20044;-64
2022/04/01 11:35:23;;;;;;;;;;;5.80;99.90;;;;;;5101203;28;20027;-63
2022/04/01 11:38:08;;;;;;;4.65;3.75;;;5.70;99.90;;;;;;5100834;28;19904;-64
2022/04/01 11:40:36;;;;;;;7.35;3.90;;;5.60;99.90;;;;;;5100395;28;20050;-63
2022/04/01 11:43:14;;;;;;;4.55;3.95;;;5.70;99.90;;;;;;5100586;28;20024;-63
2022/04/01 11:46:04;;;;;;;4.35;3.95;;;5.70;99.90;;;;;;5100245;28;20480;-63
2022/04/01 11:48:38;;;;;;;4.45;4.03;;;5.60;99.90;;;;;;5100535;28;20137;-64
2022/04/01 11:51:12;;;;;;;5.22;3.97;;;5.70;99.90;;;;;;5100470;28;20066;-63
2022/04/01 11:53:52;;;;;;;3.40;3.10;;;5.70;99.90;;;;;;5099411;28;20073;-66
2022/04/01 11:56:20;;;;;;;9.27;4.47;;;5.60;99.90;;;;;;5098750;28;20112;-63
2022/04/01 11:58:50;;;;;;;7.20;4.38;;;5.60;99.90;;;;;;5100301;28;20024;-64
2022/04/01 12:01:17;;;;;;;5.57;3.65;;;5.50;99.90;;;;;;5100237;28;20028;-64
2022/04/01 12:03:44;;;;;;;15.15;4.47;;;5.60;99.90;;;;;;5100259;28;20041;-64
2022/04/01 12:08:53;;;;;;;3.75;3.35;;;5.60;99.90;;;;;;5100024;28;20043;-65
2022/04/01 12:11:19;;;;;;;5.07;4.20;;;5.50;99.90;;;;;;5098927;28;20456;-64
2022/04/01 12:13:50;;;;;;;4.07;3.70;;;5.60;99.90;;;;;;5098924;28;20027;-64
2022/04/01 12:16:18;;;;;;;4.57;3.72;;;5.60;99.90;;;;;;5098468;28;20130;-64
2022/04/01 12:18:48;;;;;;;5.20;3.80;;;5.70;99.90;;;;;;5099861;28;20032;-64
2022/04/01 12:21:22;;;;;;;3.90;3.60;;;5.80;99.90;;;;;;5099068;28;20032;-66
2022/04/01 12:23:51;;;;;;;4.22;3.47;;;5.90;99.90;;;;;;5100433;28;20059;-66
2022/04/01 12:26:19;;;;;;;4.05;3.63;;;5.90;99.90;;;;;;5098783;28;20056;-65
2022/04/01 12:28:48;;;;;;;4.72;4.05;;;5.90;99.90;;;;;;5100237;28;20478;-65
2022/04/01 12:31:25;;;;;;;4.38;3.97;;;5.90;99.90;;;;;;5099991;28;20085;-64
2022/04/01 12:33:56;;;;;;;3.83;3.40;;;6.00;99.90;;;;;;5099926;28;20111;-64
2022/04/01 12:36:34;;;;;;;8.52;3.38;;;6.00;99.90;;;;;;5096719;28;20541;-65
2022/04/01 12:39:08;;;;;;;5.38;3.47;;;6.00;99.90;;;;;;5096828;28;20027;-64
2022/04/01 12:41:34;;;;;;;3.90;3.28;;;5.90;99.90;;;;;;5095729;28;20549;-65
2022/04/01 12:44:11;;;;;;;4.00;3.13;;;5.90;99.90;;;;;;5095457;28;20148;-71
2022/04/01 12:46:36;;;;;;;3.45;3.10;;;5.90;99.90;;;;;;5095785;28;20027;-69
2022/04/01 12:49:14;;;;;;;6.72;3.90;;;5.90;99.90;;;;;;5095431;28;20376;-66
2022/04/01 12:51:48;;;;;;;4.60;3.47;;;6.00;99.90;;;;;;5095640;28;20028;-65
2022/04/01 12:54:24;;;;;;;3.53;3.22;;;6.20;99.90;;;;;;5096640;28;20059;-67
2022/04/01 12:56:51;;;;;;;5.15;3.72;;;6.20;99.90;;;;;;5096787;28;20031;-64
2022/04/01 12:59:20;;;;;;;3.38;2.97;;;6.20;99.90;;;;;;5096378;28;20028;-69
2022/04/01 13:01:57;;;;;;;4.20;3.25;;;6.20;99.90;;;;;;5096415;28;20046;-65
2022/04/01 13:04:23;;;;;;;6.53;3.05;;;6.30;99.90;;;;;;5096408;28;20028;-67
2022/04/01 13:07:12;;;;;;;3.30;3.00;;;6.20;99.90;;;;;;5094719;28;20031;-64
2022/04/01 13:09:44;;;;;;;4.07;3.50;;;6.10;99.90;;;;;;5096941;28;20036;-64
2022/04/01 13:12:09;;;;;;;5.68;3.17;;;6.10;99.90;;;;;;5094835;28;20028;-64
2022/04/01 13:14:36;;;;;;;3.80;3.50;;;6.10;99.90;;;;;;5095989;28;20027;-64
2022/04/01 13:17:13;;;;;;;4.65;3.42;;;6.10;99.90;;;;;;5096040;28;20048;-64
2022/04/01 13:19:42;;;;;;;3.78;3.47;;;6.10;99.90;;;;;;5095254;28;20032;-65
2022/04/01 13:22:08;;;;;;;;;;;6.10;99.90;;;;;;5095144;28;20068;-65
2022/04/01 13:24:36;;;;;;;6.18;3.60;;;6.20;99.90;;;;;;5096032;28;20282;-67
2022/04/01 13:27:03;;;;;;;7.30;3.10;;;6.40;99.90;;;;;;5095910;28;20065;-64
2022/04/01 13:29:28;;;;;;;6.60;3.45;;;6.50;99.90;;;;;;5095926;28;20028;-65
2022/04/01 13:31:55;;;;;;;3.72;3.42;;;6.50;99.90;;;;;;5096076;28;20081;-65
2022/04/01 13:34:21;;;;;;;7.85;3.13;;;6.50;99.90;;;;;;5095887;28;20041;-65
2022/04/01 13:36:49;;;;;;;4.38;3.45;;;6.40;99.90;;;;;;5094389;28;20028;-65
2022/04/01 13:39:16;;;;;;;4.87;3.20;;;6.40;99.90;;;;;;5095485;28;20357;-64
2022/04/01 13:41:42;;;;;;;3.90;3.20;;;6.30;99.90;;;;;;5095768;28;20024;-65